Pagina principală
METAR-TAF:

METAR-TAF

Aeroporturi :

Minna, Nigeria

Latitudine: 9-37N, longitudine: 6-32E, elevație: 260 m

Observații meteo curente

Raportul a fost făcut în urmă cu 3 ore și 1 de minute, la 14:00 UTC
Vânt 6 kt de la Nord/Nord-vest
Temperatură 34°C
Umiditate 56%
Presiune 1011 hPa
Vizibilitate de 10 km sau mai mult
Nori fragmentați la o înălțime de 1200 picior

METAR: DNMN 131400Z 33006KT 9999 BKN012 34/24 Q1011

Ora: 18:01 (17:01 UTC)


TAF: lipsă

Observații și prognoze meteo pentru peste 4.000 de aeroporturi (rapoarte METAR și TAF).

Stațiile disponibile sunt reprezentate pe hartă prin puncte galbene și roșii.

Țineți indicatorul mouse-ului pe punctul dorit pentru a vedea denumirea stației.

Apoi, faceți clic pentru a vedea observațiile și prognozele meteorologice.

Pentru a schimba harta: Pentru mărire, faceți clic pe butoanele verzi cu cruce neagră; pentru micșorare, pe butonul verde cu o liniuță; pentru hărți învecinate, pe săgețile verzi.


METAR-TAF: